createdAt,value
2022-09-15T00:02:12.518Z,98140.78
2022-09-15T00:04:38.863Z,98151.56
2022-09-15T00:07:05.547Z,98148.56
2022-09-15T00:09:31.820Z,98152.25
2022-09-15T00:11:58.334Z,98157.00
2022-09-15T00:14:24.641Z,98157.34
2022-09-15T00:16:50.949Z,98161.16
2022-09-15T00:19:17.293Z,98159.50
2022-09-15T00:21:43.652Z,98155.31
2022-09-15T00:24:09.940Z,98158.97
2022-09-15T00:26:36.558Z,98172.91
2022-09-15T00:29:04.142Z,98169.28
2022-09-15T00:31:31.117Z,98170.72
2022-09-15T00:33:58.412Z,98167.41
2022-09-15T00:36:25.361Z,98166.56
2022-09-15T00:38:52.111Z,98167.53
2022-09-15T00:41:20.073Z,98161.25
2022-09-15T00:43:48.224Z,98162.53
2022-09-15T00:46:15.349Z,98164.19
2022-09-15T00:48:44.328Z,98172.72
2022-09-15T00:51:11.805Z,98179.00
2022-09-15T00:53:38.632Z,98171.47
2022-09-15T00:56:06.680Z,98177.91
2022-09-15T00:58:36.742Z,98176.25
2022-09-15T01:01:04.665Z,98179.22
2022-09-15T01:03:32.526Z,98189.47
2022-09-15T01:06:01.909Z,98183.34
2022-09-15T01:08:32.301Z,98187.94
2022-09-15T01:10:59.258Z,98189.00
2022-09-15T01:13:26.094Z,98193.94
2022-09-15T01:15:52.437Z,98190.91
2022-09-15T01:18:30.779Z,98192.75
2022-09-15T01:21:14.476Z,98183.13
2022-09-15T01:23:53.164Z,98184.13
2022-09-15T01:26:22.734Z,98183.97
2022-09-15T01:29:09.377Z,98177.97
2022-09-15T01:31:46.885Z,98179.81
2022-09-15T01:34:16.659Z,98185.91
2022-09-15T01:36:47.557Z,98181.25
2022-09-15T01:39:16.608Z,98174.97
2022-09-15T01:41:45.672Z,98183.75
2022-09-15T01:44:14.243Z,98183.91
2022-09-15T01:46:45.860Z,98184.75
2022-09-15T01:49:14.952Z,98177.63
2022-09-15T01:51:42.922Z,98181.25
2022-09-15T01:54:10.968Z,98179.28
2022-09-15T01:56:38.537Z,98178.44
2022-09-15T01:59:05.452Z,98181.25
2022-09-15T02:01:39.399Z,98174.81
2022-09-15T02:04:18.034Z,98178.75
2022-09-15T02:06:50.625Z,98177.94
2022-09-15T02:09:26.248Z,98172.94
2022-09-15T02:12:01.685Z,98172.94
2022-09-15T02:14:36.849Z,98168.13
2022-09-15T02:17:03.186Z,98171.75
2022-09-15T02:19:52.752Z,98175.25
2022-09-15T02:22:22.567Z,98169.09
2022-09-15T02:24:54.129Z,98170.25
2022-09-15T02:27:22.620Z,98166.41
2022-09-15T02:29:49.843Z,98165.03
2022-09-15T02:32:17.566Z,98178.44
2022-09-15T02:34:45.393Z,98165.03
2022-09-15T02:37:12.885Z,98168.50
2022-09-15T02:39:43.302Z,98173.13
2022-09-15T02:42:09.932Z,98161.72
2022-09-15T02:44:36.519Z,98167.47
2022-09-15T02:47:03.169Z,98172.94
2022-09-15T02:49:29.746Z,98171.41
2022-09-15T02:51:55.990Z,98174.06
2022-09-15T02:54:22.454Z,98168.25
2022-09-15T02:56:48.972Z,98170.34
2022-09-15T02:59:15.203Z,98171.81
2022-09-15T03:01:41.621Z,98170.44
2022-09-15T03:04:07.896Z,98167.13
2022-09-15T03:06:34.130Z,98169.94
2022-09-15T03:09:01.714Z,98176.19
2022-09-15T03:11:29.049Z,98168.09
2022-09-15T03:13:59.760Z,98182.88
2022-09-15T03:16:26.667Z,98174.91
2022-09-15T03:18:56.885Z,98180.22
2022-09-15T03:21:23.403Z,98183.16
2022-09-15T03:23:49.723Z,98186.78
2022-09-15T03:26:16.330Z,98183.47
2022-09-15T03:28:43.156Z,98180.81
2022-09-15T03:31:09.678Z,98177.47
2022-09-15T03:33:36.625Z,98184.75
2022-09-15T03:36:03.905Z,98188.78
2022-09-15T03:38:30.222Z,98196.00
2022-09-15T03:41:07.331Z,98192.00
2022-09-15T03:43:34.691Z,98200.94
2022-09-15T03:46:01.207Z,98196.31
2022-09-15T03:48:28.242Z,98192.69
2022-09-15T03:50:54.920Z,98198.97
2022-09-15T03:53:21.338Z,98198.00
2022-09-15T03:55:48.008Z,98197.16
2022-09-15T03:58:14.706Z,98205.09
2022-09-15T04:00:41.547Z,98199.94
2022-09-15T04:03:08.879Z,98200.09
2022-09-15T04:05:35.967Z,98198.28
2022-09-15T04:08:02.810Z,98206.22
2022-09-15T04:10:29.490Z,98203.44
2022-09-15T04:12:55.822Z,98213.88
2022-09-15T04:15:22.219Z,98207.75
2022-09-15T04:17:48.642Z,98205.22
2022-09-15T04:20:15.284Z,98207.19
2022-09-15T04:22:41.577Z,98206.91
2022-09-15T04:25:08.364Z,98207.06
2022-09-15T04:27:34.621Z,98204.56
2022-09-15T04:30:01.083Z,98209.56
2022-09-15T04:32:28.709Z,98206.06
2022-09-15T04:34:55.074Z,98210.63
2022-09-15T04:37:21.883Z,98218.88
2022-09-15T04:39:50.280Z,98215.97
2022-09-15T04:42:16.678Z,98214.94
2022-09-15T04:44:42.976Z,98211.28
2022-09-15T04:47:09.267Z,98212.28
2022-09-15T04:49:35.490Z,98204.63
2022-09-15T04:52:02.833Z,98208.56
2022-09-15T04:54:31.186Z,98210.22
2022-09-15T04:56:57.693Z,98210.22
2022-09-15T04:59:24.185Z,98216.50
2022-09-15T05:01:53.538Z,98211.19
2022-09-15T05:04:19.938Z,98217.31
2022-09-15T05:06:46.162Z,98207.59
2022-09-15T05:09:13.074Z,98206.72
2022-09-15T05:11:39.567Z,98208.72
2022-09-15T05:14:06.253Z,98219.28
2022-09-15T05:16:32.670Z,98214.66
2022-09-15T05:19:00.312Z,98222.25
2022-09-15T05:21:35.204Z,98224.22
2022-09-15T05:24:01.609Z,98228.78
2022-09-15T05:26:28.906Z,98226.72
2022-09-15T05:28:56.080Z,98224.06
2022-09-15T05:31:22.743Z,98235.63
2022-09-15T05:33:50.479Z,98233.13
2022-09-15T05:36:17.146Z,98233.13
2022-09-15T05:38:43.985Z,98233.50
2022-09-15T05:41:12.001Z,98239.50
2022-09-15T05:43:38.874Z,98244.63
2022-09-15T05:46:05.924Z,98246.06
2022-09-15T05:48:32.806Z,98254.00
2022-09-15T05:50:59.102Z,98254.22
2022-09-15T05:53:26.488Z,98250.75
2022-09-15T05:55:56.376Z,98254.06
2022-09-15T05:58:22.941Z,98259.47
2022-09-15T06:00:49.385Z,98258.25
2022-09-15T06:03:16.433Z,98260.38
2022-09-15T06:05:42.912Z,98259.28
2022-09-15T06:08:09.363Z,98258.59
2022-09-15T06:10:35.630Z,98257.19
2022-09-15T06:13:01.961Z,98260.53
2022-09-15T06:15:28.177Z,98264.72
2022-09-15T06:17:54.498Z,98261.94
2022-09-15T06:20:21.002Z,98268.16
2022-09-15T06:22:47.694Z,98258.72
2022-09-15T06:25:14.110Z,98254.56
2022-09-15T06:27:40.740Z,98253.03
2022-09-15T06:30:08.024Z,98253.88
2022-09-15T06:32:34.633Z,98254.41
2022-09-15T06:35:00.992Z,98260.41
2022-09-15T06:37:27.358Z,98261.78
2022-09-15T06:39:53.643Z,98264.50
2022-09-15T06:42:20.010Z,98274.50
2022-09-15T06:44:46.388Z,98282.13
2022-09-15T06:47:14.572Z,98284.94
2022-09-15T06:49:40.845Z,98284.63
2022-09-15T06:52:08.119Z,98292.84
2022-09-15T06:54:34.387Z,98303.88
2022-09-15T06:57:00.852Z,98302.13
2022-09-15T06:59:27.518Z,98308.75
2022-09-15T07:01:54.364Z,98307.78
2022-09-15T07:04:21.126Z,98310.53
2022-09-15T07:06:47.912Z,98306.16
2022-09-15T07:09:14.205Z,98305.19
2022-09-15T07:11:40.636Z,98317.19
2022-09-15T07:14:06.973Z,98304.56
2022-09-15T07:16:33.682Z,98313.63
2022-09-15T07:19:00.033Z,98308.13
2022-09-15T07:21:26.337Z,98307.91
2022-09-15T07:23:52.754Z,98302.59
2022-09-15T07:26:22.588Z,98302.19
2022-09-15T07:28:50.242Z,98308.88
2022-09-15T07:31:18.296Z,98309.94
2022-09-15T07:33:44.886Z,98307.97
2022-09-15T07:36:11.577Z,98313.34
2022-09-15T07:38:42.399Z,98312.44
2022-09-15T07:41:10.834Z,98310.03
2022-09-15T07:43:37.695Z,98316.09
2022-09-15T07:46:04.592Z,98318.31
2022-09-15T07:48:30.995Z,98307.91
2022-09-15T07:50:57.640Z,98317.22
2022-09-15T07:53:24.039Z,98318.56
2022-09-15T07:55:53.399Z,98312.75
2022-09-15T07:58:19.718Z,98328.59
2022-09-15T08:00:46.227Z,98325.63
2022-09-15T08:03:12.576Z,98331.41
2022-09-15T08:05:42.322Z,98322.53
2022-09-15T08:08:11.683Z,98333.34
2022-09-15T08:10:38.758Z,98335.22
2022-09-15T08:13:04.984Z,98336.97
2022-09-15T08:15:31.661Z,98341.44
2022-09-15T08:17:58.001Z,98340.06
2022-09-15T08:20:24.552Z,98347.09
2022-09-15T08:22:50.778Z,98338.34
2022-09-15T08:25:17.129Z,98345.25
2022-09-15T08:27:43.582Z,98348.56
2022-09-15T08:30:10.090Z,98351.81
2022-09-15T08:32:36.389Z,98351.59
2022-09-15T08:35:02.709Z,98350.53
2022-09-15T08:37:28.970Z,98355.03
2022-09-15T08:39:55.523Z,98361.47
2022-09-15T08:42:22.907Z,98358.81
2022-09-15T08:44:53.669Z,98358.00
2022-09-15T08:47:23.111Z,98359.88
2022-09-15T08:49:56.138Z,98358.28
2022-09-15T08:52:26.690Z,98358.69
2022-09-15T08:54:55.083Z,98360.63
2022-09-15T08:57:23.284Z,98354.56
2022-09-15T08:59:49.627Z,98359.63
2022-09-15T09:02:28.523Z,98357.09
2022-09-15T09:05:07.297Z,98359.66
2022-09-15T09:07:33.654Z,98355.38
2022-09-15T09:10:06.954Z,98359.09
2022-09-15T09:12:54.939Z,98360.13
2022-09-15T09:15:31.025Z,98363.22
2022-09-15T09:18:05.901Z,98361.94
2022-09-15T09:20:32.149Z,98363.03
2022-09-15T09:22:59.301Z,98364.03
2022-09-15T09:25:28.155Z,98358.66
2022-09-15T09:27:56.803Z,98355.09
2022-09-15T09:30:24.514Z,98351.03
2022-09-15T09:33:09.600Z,98354.47
2022-09-15T09:35:43.901Z,98354.78
2022-09-15T09:38:11.042Z,98355.56
2022-09-15T09:40:37.958Z,98348.47
2022-09-15T09:43:04.551Z,98346.78
2022-09-15T09:45:31.035Z,98348.06
2022-09-15T09:48:09.158Z,98337.09
2022-09-15T09:50:35.444Z,98340.25
2022-09-15T09:53:20.521Z,98334.88
2022-09-15T09:55:46.889Z,98329.47
2022-09-15T09:58:14.305Z,98332.78
2022-09-15T10:00:40.882Z,98322.88
2022-09-15T10:03:18.201Z,98325.38
2022-09-15T10:05:45.429Z,98329.84
2022-09-15T10:08:15.397Z,98332.84
2022-09-15T10:10:49.214Z,98321.50
2022-09-15T10:13:15.945Z,98333.97
2022-09-15T10:15:42.442Z,98334.66
2022-09-15T10:18:22.693Z,98335.00
2022-09-15T10:20:51.071Z,98332.03
2022-09-15T10:23:17.272Z,98331.03
2022-09-15T10:25:58.703Z,98322.69
2022-09-15T10:28:26.941Z,98324.53
2022-09-15T10:30:59.323Z,98322.84
2022-09-15T10:33:26.610Z,98322.06
2022-09-15T10:35:54.660Z,98322.19
2022-09-15T10:38:25.994Z,98324.84
2022-09-15T10:40:52.192Z,98326.00
2022-09-15T10:43:33.050Z,98322.19
2022-09-15T10:46:03.474Z,98327.63
2022-09-15T10:48:41.694Z,98322.97
2022-09-15T10:51:08.008Z,98321.47
2022-09-15T10:53:59.199Z,98331.81
2022-09-15T10:56:28.514Z,98332.09
2022-09-15T10:59:20.639Z,98339.41
2022-09-15T11:01:52.842Z,98338.38
2022-09-15T11:04:51.629Z,98347.22
2022-09-15T11:07:36.395Z,98344.72
2022-09-15T11:10:16.365Z,98340.75
2022-09-15T11:12:45.977Z,98340.59
2022-09-15T11:15:30.912Z,98340.56
2022-09-15T11:18:03.923Z,98340.22
2022-09-15T11:20:36.406Z,98345.91
2022-09-15T11:23:11.385Z,98338.25
2022-09-15T11:25:43.951Z,98341.41
2022-09-15T11:28:17.966Z,98344.75
2022-09-15T11:30:48.088Z,98351.91
2022-09-15T11:33:20.460Z,98354.53
2022-09-15T11:35:56.750Z,98353.94
2022-09-15T11:38:30.569Z,98363.53
2022-09-15T11:41:01.652Z,98356.59
2022-09-15T11:43:27.863Z,98350.13
2022-09-15T11:45:56.387Z,98359.41
2022-09-15T11:48:30.232Z,98353.72
2022-09-15T11:50:58.813Z,98351.44
2022-09-15T11:53:33.018Z,98356.69
2022-09-15T11:56:08.524Z,98363.53
2022-09-15T11:58:34.743Z,98363.84
2022-09-15T12:01:12.132Z,98363.66
2022-09-15T12:03:56.899Z,98360.91
2022-09-15T12:06:26.014Z,98366.72
2022-09-15T12:08:56.903Z,98363.66
2022-09-15T12:11:25.113Z,98370.81
2022-09-15T12:13:52.420Z,98365.47
2022-09-15T12:16:19.563Z,98369.19
2022-09-15T12:18:54.726Z,98352.56
2022-09-15T12:21:46.046Z,98357.03
2022-09-15T12:24:14.704Z,98362.69
2022-09-15T12:26:41.109Z,98358.38
2022-09-15T12:29:22.483Z,98364.56
2022-09-15T12:31:48.850Z,98361.09
2022-09-15T12:34:35.456Z,98362.91
2022-09-15T12:37:11.345Z,98365.25
2022-09-15T12:39:39.861Z,98364.44
2022-09-15T12:42:08.488Z,98373.56
2022-09-15T12:44:37.066Z,98375.25
2022-09-15T12:47:04.702Z,98368.41
2022-09-15T12:49:41.618Z,98375.22
2022-09-15T12:52:08.388Z,98369.94
2022-09-15T12:54:35.722Z,98375.78
2022-09-15T12:57:02.402Z,98372.78
2022-09-15T12:59:28.821Z,98367.94
2022-09-15T13:01:55.866Z,98374.09
2022-09-15T13:04:25.032Z,98370.09
2022-09-15T13:07:10.445Z,98376.00
2022-09-15T13:09:56.227Z,98376.69
2022-09-15T13:12:24.757Z,98365.94
2022-09-15T13:14:54.351Z,98372.47
2022-09-15T13:17:22.693Z,98365.94
2022-09-15T13:19:51.700Z,98366.44
2022-09-15T13:22:30.200Z,98371.75
2022-09-15T13:25:05.654Z,98370.84
2022-09-15T13:27:48.621Z,98377.41
2022-09-15T13:30:20.793Z,98378.84
2022-09-15T13:32:58.690Z,98378.97
2022-09-15T13:35:33.573Z,98379.72
2022-09-15T13:38:29.135Z,98371.88
2022-09-15T13:41:00.489Z,98368.13
2022-09-15T13:43:35.353Z,98367.72
2022-09-15T13:46:11.076Z,98373.59
2022-09-15T13:48:46.628Z,98373.28
2022-09-15T13:51:23.688Z,98375.69
2022-09-15T13:53:53.278Z,98364.44
2022-09-15T13:56:25.503Z,98364.59
2022-09-15T13:58:56.599Z,98363.44
2022-09-15T14:01:26.356Z,98358.13
2022-09-15T14:03:54.724Z,98359.63
2022-09-15T14:06:23.413Z,98355.09
2022-09-15T14:08:51.690Z,98358.91
2022-09-15T14:11:21.987Z,98356.25
2022-09-15T14:13:49.770Z,98358.81
2022-09-15T14:16:24.527Z,98362.72
2022-09-15T14:18:51.450Z,98358.38
2022-09-15T14:21:25.015Z,98364.59
2022-09-15T14:23:52.801Z,98344.13
2022-09-15T14:26:20.953Z,98357.91
2022-09-15T14:28:57.057Z,98349.50
2022-09-15T14:31:28.142Z,98362.25
2022-09-15T14:33:54.463Z,98365.38
2022-09-15T14:36:47.333Z,98370.59
2022-09-15T14:39:18.905Z,98359.81
2022-09-15T14:41:46.934Z,98356.78
2022-09-15T14:47:18.078Z,98357.97
2022-09-15T14:49:44.288Z,98355.44
2022-09-15T14:52:25.809Z,98347.50
2022-09-15T14:54:55.449Z,98337.22
2022-09-15T14:57:26.500Z,98342.09
2022-09-15T14:59:58.353Z,98350.94
2022-09-15T15:02:24.917Z,98342.84
2022-09-15T15:04:56.323Z,98343.59
2022-09-15T15:07:30.819Z,98350.59
2022-09-15T15:10:06.567Z,98338.13
2022-09-15T15:12:58.936Z,98339.88
2022-09-15T15:15:25.614Z,98341.19
2022-09-15T15:17:52.810Z,98341.69
2022-09-15T15:20:20.728Z,98347.00
2022-09-15T15:22:47.270Z,98344.66
2022-09-15T15:25:22.317Z,98355.44
2022-09-15T15:27:52.965Z,98345.66
2022-09-15T15:30:25.244Z,98348.63
2022-09-15T15:32:51.580Z,98344.97
2022-09-15T15:35:19.100Z,98340.22
2022-09-15T15:37:46.025Z,98350.06
2022-09-15T15:40:18.315Z,98351.22
2022-09-15T15:42:52.228Z,98344.84
2022-09-15T15:45:24.149Z,98354.72
2022-09-15T15:47:50.538Z,98358.38
2022-09-15T15:50:21.470Z,98357.88
2022-09-15T15:52:48.421Z,98357.28
2022-09-15T15:55:16.184Z,98360.44
2022-09-15T15:57:42.579Z,98355.63
2022-09-15T16:00:21.346Z,98356.78
2022-09-15T16:02:48.010Z,98357.47
2022-09-15T16:05:14.338Z,98358.13
2022-09-15T16:07:40.650Z,98357.28
2022-09-15T16:10:08.124Z,98357.81
2022-09-15T16:12:35.472Z,98367.25
2022-09-15T16:15:02.103Z,98368.75
2022-09-15T16:17:28.395Z,98367.56
2022-09-15T16:19:54.946Z,98364.22
2022-09-15T16:22:21.257Z,98354.78
2022-09-15T16:24:47.564Z,98361.25
2022-09-15T16:27:15.119Z,98365.06
2022-09-15T16:29:41.494Z,98380.34
2022-09-15T16:32:10.669Z,98382.00
2022-09-15T16:34:36.933Z,98381.69
2022-09-15T16:37:03.262Z,98379.97
2022-09-15T16:39:29.626Z,98374.81
2022-09-15T16:41:56.007Z,98378.78
2022-09-15T16:44:22.738Z,98374.97
2022-09-15T16:46:49.328Z,98379.00
2022-09-15T16:49:15.600Z,98376.22
2022-09-15T16:51:41.832Z,98374.03
2022-09-15T16:54:15.211Z,98370.53
2022-09-15T16:56:42.320Z,98363.38
2022-09-15T16:59:08.559Z,98372.31
2022-09-15T17:01:34.906Z,98375.09
2022-09-15T17:04:01.662Z,98374.03
2022-09-15T17:06:28.271Z,98368.78
2022-09-15T17:08:54.693Z,98372.06
2022-09-15T17:11:21.101Z,98369.63
2022-09-15T17:13:47.822Z,98379.13
2022-09-15T17:16:15.425Z,98385.63
2022-09-15T17:18:42.013Z,98387.56
2022-09-15T17:21:12.025Z,98382.25
2022-09-15T17:23:39.588Z,98378.06
2022-09-15T17:26:17.555Z,98378.22
2022-09-15T17:28:44.284Z,98376.47
2022-09-15T17:31:13.563Z,98368.19
2022-09-15T17:33:39.909Z,98383.56
2022-09-15T17:36:07.512Z,98375.28
2022-09-15T17:38:34.160Z,98376.63
2022-09-15T17:41:00.553Z,98381.66
2022-09-15T17:43:28.597Z,98389.06
2022-09-15T17:45:55.412Z,98375.19
2022-09-15T17:48:22.178Z,98383.75
2022-09-15T17:50:48.989Z,98380.59
2022-09-15T17:53:16.721Z,98386.53
2022-09-15T17:55:43.385Z,98380.63
2022-09-15T17:58:10.126Z,98386.03
2022-09-15T18:00:38.142Z,98385.97
2022-09-15T18:03:18.390Z,98386.28
2022-09-15T18:05:44.674Z,98392.88
2022-09-15T18:08:11.572Z,98394.34
2022-09-15T18:10:37.908Z,98400.75
2022-09-15T18:13:05.335Z,98392.44
2022-09-15T18:15:33.044Z,98399.84
2022-09-15T18:18:03.237Z,98399.59
2022-09-15T18:20:31.463Z,98406.34
2022-09-15T18:22:58.272Z,98407.31
2022-09-15T18:25:25.970Z,98406.78
2022-09-15T18:27:52.526Z,98410.72
2022-09-15T18:30:19.422Z,98417.31
2022-09-15T18:32:45.681Z,98412.19
2022-09-15T18:35:17.681Z,98417.78
2022-09-15T18:37:45.076Z,98417.94
2022-09-15T18:40:12.330Z,98419.72
2022-09-15T18:42:39.307Z,98419.88
2022-09-15T18:45:06.430Z,98425.19
2022-09-15T18:47:33.311Z,98427.69
2022-09-15T18:49:59.682Z,98420.56
2022-09-15T18:52:26.124Z,98429.66
2022-09-15T18:54:52.510Z,98431.47
2022-09-15T18:57:19.175Z,98431.47
2022-09-15T18:59:51.377Z,98435.94
2022-09-15T19:02:18.252Z,98437.00
2022-09-15T19:04:44.559Z,98434.94
2022-09-15T19:07:11.398Z,98433.28
2022-09-15T19:09:38.320Z,98437.31
2022-09-15T19:12:04.665Z,98441.25
2022-09-15T19:14:31.459Z,98433.91
2022-09-15T19:16:58.603Z,98439.88
2022-09-15T19:19:25.271Z,98446.31
2022-09-15T19:21:51.554Z,98450.41
2022-09-15T19:24:17.794Z,98452.69
2022-09-15T19:26:44.505Z,98456.81
2022-09-15T19:29:10.802Z,98443.81
2022-09-15T19:31:41.664Z,98450.50
2022-09-15T19:34:08.479Z,98452.53
2022-09-15T19:36:35.145Z,98451.94
2022-09-15T19:39:01.462Z,98448.69
2022-09-15T19:41:27.728Z,98448.06
2022-09-15T19:43:54.270Z,98450.28
2022-09-15T19:46:22.472Z,98456.03
2022-09-15T19:48:50.250Z,98455.19
2022-09-15T19:51:17.250Z,98464.50
2022-09-15T19:53:44.279Z,98468.44
2022-09-15T19:56:15.430Z,98473.84
2022-09-15T19:58:41.671Z,98474.28
2022-09-15T20:01:09.031Z,98473.97
2022-09-15T20:03:35.369Z,98472.22
2022-09-15T20:06:04.292Z,98469.97
2022-09-15T20:08:30.781Z,98474.19
2022-09-15T20:10:57.148Z,98473.59
2022-09-15T20:13:23.507Z,98477.91
2022-09-15T20:15:59.417Z,98485.78
2022-09-15T20:18:25.794Z,98483.66
2022-09-15T20:20:52.741Z,98479.78
2022-09-15T20:23:19.392Z,98475.19
2022-09-15T20:25:57.758Z,98471.69
2022-09-15T20:28:24.142Z,98478.22
2022-09-15T20:30:59.862Z,98478.50
2022-09-15T20:33:26.541Z,98475.72
2022-09-15T20:35:52.876Z,98481.78
2022-09-15T20:38:19.689Z,98485.75
2022-09-15T20:40:46.457Z,98479.38
2022-09-15T20:43:12.708Z,98479.53
2022-09-15T20:45:39.051Z,98474.66
2022-09-15T20:48:05.284Z,98487.03
2022-09-15T20:50:31.581Z,98488.22
2022-09-15T20:52:58.041Z,98478.28
2022-09-15T20:55:24.344Z,98480.09
2022-09-15T20:57:50.772Z,98479.78
2022-09-15T21:00:17.110Z,98482.59
2022-09-15T21:02:43.395Z,98477.59
2022-09-15T21:05:10.097Z,98472.47
2022-09-15T21:07:36.326Z,98469.59
2022-09-15T21:10:02.896Z,98468.50
2022-09-15T21:12:29.266Z,98476.91
2022-09-15T21:14:55.678Z,98476.47
2022-09-15T21:17:22.338Z,98475.84
2022-09-15T21:19:48.698Z,98482.13
2022-09-15T21:22:15.053Z,98485.09
2022-09-15T21:24:41.276Z,98481.59
2022-09-15T21:27:07.853Z,98485.78
2022-09-15T21:29:34.089Z,98497.59
2022-09-15T21:32:00.432Z,98495.44
2022-09-15T21:34:27.040Z,98497.75
2022-09-15T21:36:53.321Z,98498.78
2022-09-15T21:39:19.690Z,98508.56
2022-09-15T21:41:46.250Z,98512.25
2022-09-15T21:44:12.595Z,98511.03
2022-09-15T21:46:38.989Z,98517.03
2022-09-15T21:49:05.293Z,98516.47
2022-09-15T21:51:31.528Z,98517.47
2022-09-15T21:53:58.779Z,98522.47
2022-09-15T21:56:25.865Z,98519.66
2022-09-15T21:58:52.343Z,98523.97
2022-09-15T22:01:20.372Z,98524.81
2022-09-15T22:03:54.143Z,98521.44
2022-09-15T22:06:22.472Z,98523.94
2022-09-15T22:08:48.794Z,98527.16
2022-09-15T22:11:15.360Z,98535.19
2022-09-15T22:13:43.083Z,98528.25
2022-09-15T22:16:13.978Z,98528.06
2022-09-15T22:18:41.394Z,98531.53
2022-09-15T22:21:09.596Z,98548.66
2022-09-15T22:23:35.910Z,98547.94
2022-09-15T22:26:04.285Z,98552.56
2022-09-15T22:28:31.244Z,98545.34
2022-09-15T22:31:00.934Z,98539.38
2022-09-15T22:33:27.712Z,98539.25
2022-09-15T22:35:54.099Z,98540.94
2022-09-15T22:38:21.116Z,98549.16
2022-09-15T22:40:47.470Z,98537.50
2022-09-15T22:43:13.881Z,98532.22
2022-09-15T22:45:40.262Z,98530.03
2022-09-15T22:48:06.857Z,98527.25
2022-09-15T22:50:33.415Z,98531.22
2022-09-15T22:52:59.918Z,98528.59
2022-09-15T22:55:26.226Z,98530.16
2022-09-15T22:57:52.521Z,98529.47
2022-09-15T23:00:18.839Z,98541.97
2022-09-15T23:02:46.303Z,98539.75
2022-09-15T23:05:12.904Z,98541.41
2022-09-15T23:07:39.201Z,98536.16
2022-09-15T23:10:05.506Z,98530.75
2022-09-15T23:12:32.339Z,98529.50
2022-09-15T23:14:58.661Z,98534.06
2022-09-15T23:17:25.013Z,98535.19
2022-09-15T23:19:51.237Z,98541.31
2022-09-15T23:22:17.468Z,98533.78
2022-09-15T23:24:43.857Z,98527.81
2022-09-15T23:27:10.386Z,98534.63
2022-09-15T23:29:36.669Z,98528.22
2022-09-15T23:32:03.008Z,98534.50
2022-09-15T23:34:29.235Z,98533.38
2022-09-15T23:36:55.725Z,98536.16
2022-09-15T23:39:22.081Z,98539.78
2022-09-15T23:41:48.512Z,98540.88
2022-09-15T23:44:14.870Z,98536.28
2022-09-15T23:46:41.233Z,98531.69
2022-09-15T23:49:07.796Z,98531.84
2022-09-15T23:51:34.486Z,98534.63
2022-09-15T23:54:00.781Z,98544.06
2022-09-15T23:56:27.029Z,98542.41
2022-09-15T23:58:54.062Z,98544.75
